sensor_id;sensor_type;location;lat;lon;timestamp;pressure;altitude;pressure_sealevel;temperature;humidity
36378;BME280;22402;42.746;23.606;2024-01-27T00:02:18;93877.59;;;-1.13;100.00
36378;BME280;22402;42.746;23.606;2024-01-27T00:04:43;93875.81;;;-1.11;100.00
36378;BME280;22402;42.746;23.606;2024-01-27T00:07:09;93875.69;;;-1.08;100.00
36378;BME280;22402;42.746;23.606;2024-01-27T00:09:34;93867.09;;;-1.07;100.00
36378;BME280;22402;42.746;23.606;2024-01-27T00:12:00;93884.13;;;-1.06;100.00
36378;BME280;22402;42.746;23.606;2024-01-27T00:14:26;93879.84;;;-1.06;100.00
36378;BME280;22402;42.746;23.606;2024-01-27T00:16:51;93880.66;;;-1.05;100.00
36378;BME280;22402;42.746;23.606;2024-01-27T00:19:17;93866.84;;;-1.01;100.00
36378;BME280;22402;42.746;23.606;2024-01-27T00:21:42;93858.13;;;-0.97;100.00
36378;BME280;22402;42.746;23.606;2024-01-27T00:24:08;93858.69;;;-0.90;100.00
36378;BME280;22402;42.746;23.606;2024-01-27T00:26:33;93866.19;;;-0.86;100.00
36378;BME280;22402;42.746;23.606;2024-01-27T00:28:59;93854.22;;;-0.85;100.00
36378;BME280;22402;42.746;23.606;2024-01-27T00:31:24;93875.34;;;-0.80;100.00
36378;BME280;22402;42.746;23.606;2024-01-27T00:33:50;93873.59;;;-0.80;100.00
36378;BME280;22402;42.746;23.606;2024-01-27T00:36:15;93875.22;;;-0.77;100.00
36378;BME280;22402;42.746;23.606;2024-01-27T00:38:41;93884.59;;;-0.78;100.00
36378;BME280;22402;42.746;23.606;2024-01-27T00:41:06;93873.75;;;-0.83;100.00
36378;BME280;22402;42.746;23.606;2024-01-27T00:43:32;93869.22;;;-0.78;100.00
36378;BME280;22402;42.746;23.606;2024-01-27T00:45:57;93860.66;;;-0.77;100.00
36378;BME280;22402;42.746;23.606;2024-01-27T00:48:22;93852.09;;;-0.76;100.00
36378;BME280;22402;42.746;23.606;2024-01-27T00:50:48;93856.25;;;-0.73;100.00
36378;BME280;22402;42.746;23.606;2024-01-27T00:53:13;93852.78;;;-0.72;100.00
36378;BME280;22402;42.746;23.606;2024-01-27T00:55:39;93845.19;;;-0.74;100.00
36378;BME280;22402;42.746;23.606;2024-01-27T00:58:04;93855.56;;;-0.77;100.00
36378;BME280;22402;42.746;23.606;2024-01-27T01:00:30;93845.44;;;-0.80;100.00
36378;BME280;22402;42.746;23.606;2024-01-27T01:02:55;93863.56;;;-0.84;100.00
36378;BME280;22402;42.746;23.606;2024-01-27T01:05:21;93858.78;;;-0.92;100.00
36378;BME280;22402;42.746;23.606;2024-01-27T01:07:46;93862.47;;;-0.99;100.00
36378;BME280;22402;42.746;23.606;2024-01-27T01:10:12;93849.19;;;-1.07;100.00
36378;BME280;22402;42.746;23.606;2024-01-27T01:12:38;93847.00;;;-1.17;100.00
36378;BME280;22402;42.746;23.606;2024-01-27T01:15:04;93851.56;;;-1.23;100.00
36378;BME280;22402;42.746;23.606;2024-01-27T01:17:29;93852.78;;;-1.32;100.00
36378;BME280;22402;42.746;23.606;2024-01-27T01:19:55;93852.84;;;-1.33;100.00
36378;BME280;22402;42.746;23.606;2024-01-27T01:22:20;93862.31;;;-1.35;100.00
36378;BME280;22402;42.746;23.606;2024-01-27T01:24:45;93875.16;;;-1.37;100.00
36378;BME280;22402;42.746;23.606;2024-01-27T01:27:11;93865.03;;;-1.40;100.00
36378;BME280;22402;42.746;23.606;2024-01-27T01:29:36;93868.63;;;-1.44;100.00
36378;BME280;22402;42.746;23.606;2024-01-27T01:32:02;93865.31;;;-1.46;100.00
36378;BME280;22402;42.746;23.606;2024-01-27T01:34:28;93873.09;;;-1.49;100.00
36378;BME280;22402;42.746;23.606;2024-01-27T01:36:54;93861.34;;;-1.53;100.00
36378;BME280;22402;42.746;23.606;2024-01-27T01:39:19;93864.94;;;-1.57;100.00
36378;BME280;22402;42.746;23.606;2024-01-27T01:41:45;93855.72;;;-1.62;100.00
36378;BME280;22402;42.746;23.606;2024-01-27T01:44:10;93851.50;;;-1.63;100.00
36378;BME280;22402;42.746;23.606;2024-01-27T01:46:36;93841.31;;;-1.64;100.00
36378;BME280;22402;42.746;23.606;2024-01-27T01:49:02;93839.66;;;-1.65;100.00
36378;BME280;22402;42.746;23.606;2024-01-27T01:51:28;93848.25;;;-1.66;100.00
36378;BME280;22402;42.746;23.606;2024-01-27T01:53:57;93844.91;;;-1.68;100.00
36378;BME280;22402;42.746;23.606;2024-01-27T01:56:24;93843.16;;;-1.68;100.00
36378;BME280;22402;42.746;23.606;2024-01-27T01:58:49;93848.38;;;-1.69;100.00
36378;BME280;22402;42.746;23.606;2024-01-27T02:01:17;93836.44;;;-1.70;100.00
36378;BME280;22402;42.746;23.606;2024-01-27T02:03:54;93826.19;;;-1.69;100.00
36378;BME280;22402;42.746;23.606;2024-01-27T02:06:19;93835.50;;;-1.68;100.00
36378;BME280;22402;42.746;23.606;2024-01-27T02:08:45;93820.94;;;-1.66;100.00
36378;BME280;22402;42.746;23.606;2024-01-27T02:11:10;93821.59;;;-1.61;100.00
36378;BME280;22402;42.746;23.606;2024-01-27T02:13:35;93815.19;;;-1.50;100.00
36378;BME280;22402;42.746;23.606;2024-01-27T02:16:01;93819.00;;;-1.40;100.00
36378;BME280;22402;42.746;23.606;2024-01-27T02:18:27;93819.47;;;-1.30;100.00
36378;BME280;22402;42.746;23.606;2024-01-27T02:20:52;93819.91;;;-1.21;100.00
36378;BME280;22402;42.746;23.606;2024-01-27T02:23:18;93812.59;;;-1.09;100.00
36378;BME280;22402;42.746;23.606;2024-01-27T02:25:43;93823.25;;;-1.00;100.00
36378;BME280;22402;42.746;23.606;2024-01-27T02:28:08;93822.03;;;-0.91;100.00
36378;BME280;22402;42.746;23.606;2024-01-27T02:30:34;93824.25;;;-0.83;100.00
36378;BME280;22402;42.746;23.606;2024-01-27T02:33:01;93820.59;;;-0.78;100.00
36378;BME280;22402;42.746;23.606;2024-01-27T02:35:27;93814.31;;;-0.71;100.00
36378;BME280;22402;42.746;23.606;2024-01-27T02:37:52;93814.16;;;-0.67;100.00
36378;BME280;22402;42.746;23.606;2024-01-27T02:40:18;93794.31;;;-0.62;100.00
36378;BME280;22402;42.746;23.606;2024-01-27T02:42:43;93805.16;;;-0.57;100.00
36378;BME280;22402;42.746;23.606;2024-01-27T02:45:10;93801.50;;;-0.52;100.00
36378;BME280;22402;42.746;23.606;2024-01-27T02:47:36;93798.50;;;-0.42;100.00
36378;BME280;22402;42.746;23.606;2024-01-27T02:50:02;93802.38;;;-0.34;100.00
36378;BME280;22402;42.746;23.606;2024-01-27T02:52:28;93796.81;;;-0.25;100.00
36378;BME280;22402;42.746;23.606;2024-01-27T02:54:53;93797.31;;;-0.16;100.00
36378;BME280;22402;42.746;23.606;2024-01-27T02:57:19;93798.50;;;-0.06;100.00
36378;BME280;22402;42.746;23.606;2024-01-27T02:59:48;93787.91;;;0.02;100.00
36378;BME280;22402;42.746;23.606;2024-01-27T03:02:14;93799.53;;;0.09;100.00
36378;BME280;22402;42.746;23.606;2024-01-27T03:04:39;93790.66;;;0.16;100.00
36378;BME280;22402;42.746;23.606;2024-01-27T03:07:05;93787.03;;;0.20;100.00
36378;BME280;22402;42.746;23.606;2024-01-27T03:09:31;93790.88;;;0.29;100.00
36378;BME280;22402;42.746;23.606;2024-01-27T03:11:57;93804.31;;;0.34;100.00
36378;BME280;22402;42.746;23.606;2024-01-27T03:14:22;93795.56;;;0.38;100.00
36378;BME280;22402;42.746;23.606;2024-01-27T03:16:48;93796.94;;;0.45;100.00
36378;BME280;22402;42.746;23.606;2024-01-27T03:19:13;93795.91;;;0.48;100.00
36378;BME280;22402;42.746;23.606;2024-01-27T03:21:39;93796.63;;;0.51;100.00
36378;BME280;22402;42.746;23.606;2024-01-27T03:24:05;93785.28;;;0.55;100.00
36378;BME280;22402;42.746;23.606;2024-01-27T03:26:30;93784.38;;;0.56;100.00
36378;BME280;22402;42.746;23.606;2024-01-27T03:28:56;93784.22;;;0.59;100.00
36378;BME280;22402;42.746;23.606;2024-01-27T03:31:23;93786.63;;;0.62;100.00
36378;BME280;22402;42.746;23.606;2024-01-27T03:33:48;93789.13;;;0.64;100.00
36378;BME280;22402;42.746;23.606;2024-01-27T03:36:15;93783.19;;;0.63;100.00
36378;BME280;22402;42.746;23.606;2024-01-27T03:38:41;93785.59;;;0.66;100.00
36378;BME280;22402;42.746;23.606;2024-01-27T03:41:06;93776.97;;;0.67;100.00
36378;BME280;22402;42.746;23.606;2024-01-27T03:43:35;93784.44;;;0.72;100.00
36378;BME280;22402;42.746;23.606;2024-01-27T03:46:01;93774.09;;;0.74;100.00
36378;BME280;22402;42.746;23.606;2024-01-27T03:48:28;93764.50;;;0.77;100.00
36378;BME280;22402;42.746;23.606;2024-01-27T03:50:54;93761.63;;;0.83;100.00
36378;BME280;22402;42.746;23.606;2024-01-27T03:53:19;93764.03;;;0.86;100.00
36378;BME280;22402;42.746;23.606;2024-01-27T03:55:45;93774.47;;;0.83;100.00
36378;BME280;22402;42.746;23.606;2024-01-27T03:58:11;93775.03;;;0.88;100.00
36378;BME280;22402;42.746;23.606;2024-01-27T04:00:36;93772.41;;;0.90;100.00
36378;BME280;22402;42.746;23.606;2024-01-27T04:03:02;93781.00;;;0.89;100.00
36378;BME280;22402;42.746;23.606;2024-01-27T04:05:30;93771.59;;;0.89;100.00
36378;BME280;22402;42.746;23.606;2024-01-27T04:07:56;93772.56;;;0.87;100.00
36378;BME280;22402;42.746;23.606;2024-01-27T04:10:22;93771.00;;;0.84;100.00
36378;BME280;22402;42.746;23.606;2024-01-27T04:12:49;93767.66;;;0.82;100.00
36378;BME280;22402;42.746;23.606;2024-01-27T04:15:14;93765.03;;;0.84;100.00
36378;BME280;22402;42.746;23.606;2024-01-27T04:17:40;93771.00;;;0.84;100.00
36378;BME280;22402;42.746;23.606;2024-01-27T04:20:07;93782.19;;;0.83;100.00
36378;BME280;22402;42.746;23.606;2024-01-27T04:22:34;93767.00;;;0.79;100.00
36378;BME280;22402;42.746;23.606;2024-01-27T04:24:59;93763.50;;;0.80;100.00
36378;BME280;22402;42.746;23.606;2024-01-27T04:27:27;93760.06;;;0.81;100.00
36378;BME280;22402;42.746;23.606;2024-01-27T04:29:52;93763.34;;;0.83;100.00
36378;BME280;22402;42.746;23.606;2024-01-27T04:32:17;93775.38;;;0.82;100.00
36378;BME280;22402;42.746;23.606;2024-01-27T04:34:43;93776.19;;;0.83;100.00
36378;BME280;22402;42.746;23.606;2024-01-27T04:37:08;93780.44;;;0.84;100.00
36378;BME280;22402;42.746;23.606;2024-01-27T04:39:34;93785.47;;;0.85;100.00
36378;BME280;22402;42.746;23.606;2024-01-27T04:42:00;93783.72;;;0.86;100.00
36378;BME280;22402;42.746;23.606;2024-01-27T04:44:25;93777.88;;;0.84;100.00
36378;BME280;22402;42.746;23.606;2024-01-27T04:46:51;93784.34;;;0.91;100.00
36378;BME280;22402;42.746;23.606;2024-01-27T04:49:17;93781.00;;;0.89;100.00
36378;BME280;22402;42.746;23.606;2024-01-27T04:51:42;93777.56;;;0.90;100.00
36378;BME280;22402;42.746;23.606;2024-01-27T04:54:08;93780.84;;;0.92;100.00
36378;BME280;22402;42.746;23.606;2024-01-27T04:56:34;93784.16;;;0.94;100.00
36378;BME280;22402;42.746;23.606;2024-01-27T04:58:59;93786.84;;;0.93;100.00
36378;BME280;22402;42.746;23.606;2024-01-27T05:01:25;93782.53;;;0.93;100.00
36378;BME280;22402;42.746;23.606;2024-01-27T05:03:50;93785.81;;;0.95;100.00
36378;BME280;22402;42.746;23.606;2024-01-27T05:06:15;93788.47;;;0.94;100.00
36378;BME280;22402;42.746;23.606;2024-01-27T05:08:42;93797.09;;;0.93;100.00
36378;BME280;22402;42.746;23.606;2024-01-27T05:11:08;93790.81;;;0.98;100.00
36378;BME280;22402;42.746;23.606;2024-01-27T05:13:33;93793.53;;;0.95;100.00
36378;BME280;22402;42.746;23.606;2024-01-27T05:15:58;93804.72;;;0.94;100.00
36378;BME280;22402;42.746;23.606;2024-01-27T05:18:24;93802.16;;;0.94;100.00
36378;BME280;22402;42.746;23.606;2024-01-27T05:20:50;93805.53;;;0.95;100.00
36378;BME280;22402;42.746;23.606;2024-01-27T05:23:15;93799.56;;;0.94;100.00
36378;BME280;22402;42.746;23.606;2024-01-27T05:25:41;93802.25;;;0.93;100.00
36378;BME280;22402;42.746;23.606;2024-01-27T05:28:06;93799.56;;;0.94;100.00
36378;BME280;22402;42.746;23.606;2024-01-27T05:33:07;93807.13;;;0.97;100.00
36378;BME280;22402;42.746;23.606;2024-01-27T05:35:33;93803.72;;;0.97;100.00
36378;BME280;22402;42.746;23.606;2024-01-27T05:37:58;93813.09;;;0.98;100.00
36378;BME280;22402;42.746;23.606;2024-01-27T05:40:27;93813.94;;;0.98;100.00
36378;BME280;22402;42.746;23.606;2024-01-27T05:42:53;93814.66;;;1.00;100.00
36378;BME280;22402;42.746;23.606;2024-01-27T05:45:19;93822.53;;;0.97;100.00
36378;BME280;22402;42.746;23.606;2024-01-27T05:47:45;93822.53;;;0.97;100.00
36378;BME280;22402;42.746;23.606;2024-01-27T05:50:11;93825.75;;;1.01;100.00
36378;BME280;22402;42.746;23.606;2024-01-27T05:52:36;93821.63;;;0.98;100.00
36378;BME280;22402;42.746;23.606;2024-01-27T05:55:02;93818.81;;;1.03;100.00
36378;BME280;22402;42.746;23.606;2024-01-27T05:57:28;93821.16;;;1.07;100.00
36378;BME280;22402;42.746;23.606;2024-01-27T05:59:54;93809.22;;;1.06;100.00
36378;BME280;22402;42.746;23.606;2024-01-27T06:02:23;93822.06;;;1.06;100.00
36378;BME280;22402;42.746;23.606;2024-01-27T06:04:49;93818.50;;;1.09;100.00
36378;BME280;22402;42.746;23.606;2024-01-27T06:07:14;93829.03;;;1.04;100.00
36378;BME280;22402;42.746;23.606;2024-01-27T06:09:40;93828.94;;;1.06;100.00
36378;BME280;22402;42.746;23.606;2024-01-27T06:12:06;93831.28;;;1.10;100.00
36378;BME280;22402;42.746;23.606;2024-01-27T06:14:32;93823.63;;;1.09;100.00
36378;BME280;22402;42.746;23.606;2024-01-27T06:16:57;93830.41;;;1.10;100.00
36378;BME280;22402;42.746;23.606;2024-01-27T06:19:23;93817.84;;;1.05;100.00
36378;BME280;22402;42.746;23.606;2024-01-27T06:21:48;93822.72;;;1.10;100.00
36378;BME280;22402;42.746;23.606;2024-01-27T06:24:14;93820.09;;;1.11;100.00
36378;BME280;22402;42.746;23.606;2024-01-27T06:26:40;93832.94;;;1.11;100.00
36378;BME280;22402;42.746;23.606;2024-01-27T06:29:05;93830.41;;;1.10;100.00
36378;BME280;22402;42.746;23.606;2024-01-27T06:31:31;93838.22;;;1.08;100.00
36378;BME280;22402;42.746;23.606;2024-01-27T06:33:56;93829.75;;;1.06;100.00
36378;BME280;22402;42.746;23.606;2024-01-27T06:36:22;93829.59;;;1.09;100.00
36378;BME280;22402;42.746;23.606;2024-01-27T06:38:50;93835.72;;;1.07;100.00
36378;BME280;22402;42.746;23.606;2024-01-27T06:41:16;93840.03;;;1.06;100.00
36378;BME280;22402;42.746;23.606;2024-01-27T06:43:42;93847.56;;;1.09;100.00
36378;BME280;22402;42.746;23.606;2024-01-27T06:46:07;93842.59;;;1.06;100.00
36378;BME280;22402;42.746;23.606;2024-01-27T06:48:33;93851.06;;;1.08;100.00
36378;BME280;22402;42.746;23.606;2024-01-27T06:50:58;93850.16;;;1.09;100.00
36378;BME280;22402;42.746;23.606;2024-01-27T06:53:24;93860.41;;;1.09;100.00
36378;BME280;22402;42.746;23.606;2024-01-27T06:55:49;93862.91;;;1.11;100.00
36378;BME280;22402;42.746;23.606;2024-01-27T06:58:15;93870.53;;;1.12;100.00
36378;BME280;22402;42.746;23.606;2024-01-27T07:00:40;93863.66;;;1.13;100.00
36378;BME280;22402;42.746;23.606;2024-01-27T07:03:06;93867.81;;;1.16;100.00
36378;BME280;22402;42.746;23.606;2024-01-27T07:05:31;93859.38;;;1.13;100.00
36378;BME280;22402;42.746;23.606;2024-01-27T07:07:59;93858.91;;;1.23;100.00
36378;BME280;22402;42.746;23.606;2024-01-27T07:10:28;93840.91;;;1.23;100.00
36378;BME280;22402;42.746;23.606;2024-01-27T07:12:56;93842.41;;;1.27;100.00
36378;BME280;22402;42.746;23.606;2024-01-27T07:15:22;93847.53;;;1.27;100.00
36378;BME280;22402;42.746;23.606;2024-01-27T07:17:51;93844.66;;;1.33;100.00
36378;BME280;22402;42.746;23.606;2024-01-27T07:20:17;93833.78;;;1.28;100.00
36378;BME280;22402;42.746;23.606;2024-01-27T07:22:43;93853.03;;;1.36;100.00
36378;BME280;22402;42.746;23.606;2024-01-27T07:25:08;93850.41;;;1.38;100.00
36378;BME280;22402;42.746;23.606;2024-01-27T07:27:35;93842.59;;;1.40;100.00
36378;BME280;22402;42.746;23.606;2024-01-27T07:30:02;93849.47;;;1.39;100.00
36378;BME280;22402;42.746;23.606;2024-01-27T07:32:28;93840.19;;;1.36;100.00
36378;BME280;22402;42.746;23.606;2024-01-27T07:34:54;93866.72;;;1.37;100.00
36378;BME280;22402;42.746;23.606;2024-01-27T07:37:19;93853.28;;;1.32;100.00
36378;BME280;22402;42.746;23.606;2024-01-27T07:39:46;93858.16;;;1.36;100.00
36378;BME280;22402;42.746;23.606;2024-01-27T07:42:11;93869.47;;;1.34;100.00
36378;BME280;22402;42.746;23.606;2024-01-27T07:44:40;93863.31;;;1.36;100.00
36378;BME280;22402;42.746;23.606;2024-01-27T07:47:06;93869.47;;;1.34;100.00
36378;BME280;22402;42.746;23.606;2024-01-27T07:49:31;93865.22;;;1.33;100.00
36378;BME280;22402;42.746;23.606;2024-01-27T07:51:57;93871.28;;;1.32;100.00
36378;BME280;22402;42.746;23.606;2024-01-27T07:54:23;93859.25;;;1.32;100.00
36378;BME280;22402;42.746;23.606;2024-01-27T07:56:48;93843.94;;;1.31;100.00
36378;BME280;22402;42.746;23.606;2024-01-27T07:59:14;93843.06;;;1.30;100.00
36378;BME280;22402;42.746;23.606;2024-01-27T08:01:40;93829.09;;;1.36;100.00
36378;BME280;22402;42.746;23.606;2024-01-27T08:04:06;93838.16;;;1.43;100.00
36378;BME280;22402;42.746;23.606;2024-01-27T08:06:32;93860.47;;;1.58;100.00
36378;BME280;22402;42.746;23.606;2024-01-27T08:08:58;93868.50;;;1.68;100.00
36378;BME280;22402;42.746;23.606;2024-01-27T08:11:24;93857.75;;;1.77;100.00
36378;BME280;22402;42.746;23.606;2024-01-27T08:13:50;93870.84;;;1.89;100.00
36378;BME280;22402;42.746;23.606;2024-01-27T08:16:15;93878.16;;;1.96;100.00
36378;BME280;22402;42.746;23.606;2024-01-27T08:18:41;93878.00;;;1.99;100.00
36378;BME280;22402;42.746;23.606;2024-01-27T08:21:11;93885.72;;;1.99;100.00
36378;BME280;22402;42.746;23.606;2024-01-27T08:23:39;93889.59;;;2.07;100.00
36378;BME280;22402;42.746;23.606;2024-01-27T08:26:04;93883.78;;;2.19;100.00
36378;BME280;22402;42.746;23.606;2024-01-27T08:28:30;93894.66;;;2.24;100.00
36378;BME280;22402;42.746;23.606;2024-01-27T08:30:55;93891.78;;;2.14;100.00
36378;BME280;22402;42.746;23.606;2024-01-27T08:33:21;93903.06;;;2.12;100.00
36378;BME280;22402;42.746;23.606;2024-01-27T08:35:47;93898.41;;;2.02;100.00
36378;BME280;22402;42.746;23.606;2024-01-27T08:38:15;93901.22;;;1.98;100.00
36378;BME280;22402;42.746;23.606;2024-01-27T08:40:41;93910.09;;;1.92;100.00
36378;BME280;22402;42.746;23.606;2024-01-27T08:43:07;93900.41;;;1.97;100.00
36378;BME280;22402;42.746;23.606;2024-01-27T08:45:32;93886.63;;;1.98;100.00
36378;BME280;22402;42.746;23.606;2024-01-27T08:47:58;93867.56;;;2.02;100.00
36378;BME280;22402;42.746;23.606;2024-01-27T08:50:24;93867.56;;;2.02;100.00
36378;BME280;22402;42.746;23.606;2024-01-27T08:52:49;93893.91;;;2.22;100.00
36378;BME280;22402;42.746;23.606;2024-01-27T08:55:15;93884.63;;;2.35;100.00
36378;BME280;22402;42.746;23.606;2024-01-27T08:57:44;93899.38;;;2.47;100.00
36378;BME280;22402;42.746;23.606;2024-01-27T09:00:10;93914.50;;;2.54;100.00
36378;BME280;22402;42.746;23.606;2024-01-27T09:02:36;93905.44;;;2.46;100.00
36378;BME280;22402;42.746;23.606;2024-01-27T09:05:01;93908.16;;;2.43;100.00
36378;BME280;22402;42.746;23.606;2024-01-27T09:07:28;93906.88;;;2.36;100.00
36378;BME280;22402;42.746;23.606;2024-01-27T09:09:54;93905.03;;;2.38;100.00
36378;BME280;22402;42.746;23.606;2024-01-27T09:12:20;93912.19;;;2.33;100.00
36378;BME280;22402;42.746;23.606;2024-01-27T09:14:46;93911.16;;;2.51;100.00
36378;BME280;22402;42.746;23.606;2024-01-27T09:17:13;93912.16;;;2.65;100.00
36378;BME280;22402;42.746;23.606;2024-01-27T09:19:38;93910.13;;;2.70;100.00
36378;BME280;22402;42.746;23.606;2024-01-27T09:22:03;93919.59;;;2.69;100.00
36378;BME280;22402;42.746;23.606;2024-01-27T09:24:29;93923.94;;;2.69;100.00
36378;BME280;22402;42.746;23.606;2024-01-27T09:26:54;93913.88;;;2.64;100.00
36378;BME280;22402;42.746;23.606;2024-01-27T09:29:20;93915.97;;;2.58;100.00
36378;BME280;22402;42.746;23.606;2024-01-27T09:31:45;93922.94;;;2.56;100.00
36378;BME280;22402;42.746;23.606;2024-01-27T09:34:11;93912.31;;;2.62;100.00
36378;BME280;22402;42.746;23.606;2024-01-27T09:36:37;93902.94;;;2.61;100.00
36378;BME280;22402;42.746;23.606;2024-01-27T09:39:02;93900.06;;;2.81;100.00
36378;BME280;22402;42.746;23.606;2024-01-27T09:41:30;93894.19;;;3.24;100.00
36378;BME280;22402;42.746;23.606;2024-01-27T09:44:00;93889.41;;;3.89;100.00
36378;BME280;22402;42.746;23.606;2024-01-27T09:46:26;93879.44;;;4.53;100.00
36378;BME280;22402;42.746;23.606;2024-01-27T09:48:52;93871.81;;;5.04;100.00
36378;BME280;22402;42.746;23.606;2024-01-27T09:51:19;93884.59;;;4.93;100.00
36378;BME280;22402;42.746;23.606;2024-01-27T09:53:45;93880.19;;;4.68;100.00
36378;BME280;22402;42.746;23.606;2024-01-27T09:56:12;93891.50;;;4.52;100.00
36378;BME280;22402;42.746;23.606;2024-01-27T09:58:43;93896.59;;;4.40;100.00
36378;BME280;22402;42.746;23.606;2024-01-27T10:01:16;93898.31;;;4.26;100.00
36378;BME280;22402;42.746;23.606;2024-01-27T10:03:47;93892.44;;;4.10;100.00
36378;BME280;22402;42.746;23.606;2024-01-27T10:06:12;93894.94;;;3.83;100.00
36378;BME280;22402;42.746;23.606;2024-01-27T10:08:40;93897.44;;;3.70;100.00
36378;BME280;22402;42.746;23.606;2024-01-27T10:11:10;93898.19;;;3.58;100.00
36378;BME280;22402;42.746;23.606;2024-01-27T10:13:38;93899.00;;;3.44;100.00
36378;BME280;22402;42.746;23.606;2024-01-27T10:16:07;93893.09;;;3.28;100.00
36378;BME280;22402;42.746;23.606;2024-01-27T10:18:34;93894.09;;;3.25;100.00
36378;BME280;22402;42.746;23.606;2024-01-27T10:21:00;93907.34;;;3.19;100.00
36378;BME280;22402;42.746;23.606;2024-01-27T10:23:26;93908.06;;;3.21;100.00
36378;BME280;22402;42.746;23.606;2024-01-27T10:25:52;93907.63;;;3.29;100.00
36378;BME280;22402;42.746;23.606;2024-01-27T10:28:17;93897.03;;;3.19;100.00
36378;BME280;22402;42.746;23.606;2024-01-27T10:30:44;93907.34;;;3.19;100.00
36378;BME280;22402;42.746;23.606;2024-01-27T10:33:10;93908.41;;;3.15;100.00
36378;BME280;22402;42.746;23.606;2024-01-27T10:35:37;93907.69;;;3.13;100.00
36378;BME280;22402;42.746;23.606;2024-01-27T10:38:03;93902.56;;;3.13;100.00
36378;BME280;22402;42.746;23.606;2024-01-27T10:40:30;93894.34;;;3.20;100.00
36378;BME280;22402;42.746;23.606;2024-01-27T10:43:05;93896.78;;;3.38;100.00
36378;BME280;22402;42.746;23.606;2024-01-27T10:45:53;93894.28;;;3.51;100.00
36378;BME280;22402;42.746;23.606;2024-01-27T10:48:20;93904.53;;;3.52;100.00
36378;BME280;22402;42.746;23.606;2024-01-27T10:50:46;93899.84;;;3.59;100.00
36378;BME280;22402;42.746;23.606;2024-01-27T10:53:22;93894.03;;;3.70;100.00
36378;BME280;22402;42.746;23.606;2024-01-27T10:55:53;93896.06;;;3.79;100.00
36378;BME280;22402;42.746;23.606;2024-01-27T10:58:23;93906.28;;;3.95;100.00
36378;BME280;22402;42.746;23.606;2024-01-27T11:00:50;93916.94;;;4.17;100.00
36378;BME280;22402;42.746;23.606;2024-01-27T11:03:20;93936.19;;;4.26;100.00
36378;BME280;22402;42.746;23.606;2024-01-27T11:05:46;93939.06;;;4.21;100.00
36378;BME280;22402;42.746;23.606;2024-01-27T11:08:13;93925.78;;;4.13;100.00
36378;BME280;22402;42.746;23.606;2024-01-27T11:10:40;93938.41;;;4.18;100.00
36378;BME280;22402;42.746;23.606;2024-01-27T11:13:06;93953.09;;;4.17;100.00
36378;BME280;22402;42.746;23.606;2024-01-27T11:15:33;93948.47;;;4.08;100.00
36378;BME280;22402;42.746;23.606;2024-01-27T11:17:59;93945.53;;;4.00;100.00
36378;BME280;22402;42.746;23.606;2024-01-27T11:20:25;93933.94;;;3.93;100.00
36378;BME280;22402;42.746;23.606;2024-01-27T11:22:51;93943.69;;;3.87;100.00
36378;BME280;22402;42.746;23.606;2024-01-27T11:25:18;93933.19;;;3.91;100.00
36378;BME280;22402;42.746;23.606;2024-01-27T11:27:45;93948.84;;;4.02;100.00
36378;BME280;22402;42.746;23.606;2024-01-27T11:30:32;93940.88;;;4.19;100.00
36378;BME280;22402;42.746;23.606;2024-01-27T11:33:04;93941.63;;;4.36;100.00
36378;BME280;22402;42.746;23.606;2024-01-27T11:35:31;93955.53;;;4.47;100.00
36378;BME280;22402;42.746;23.606;2024-01-27T11:37:57;93941.94;;;4.58;100.00
36378;BME280;22402;42.746;23.606;2024-01-27T11:40:22;93948.91;;;4.70;100.00
36378;BME280;22402;42.746;23.606;2024-01-27T11:42:59;93936.44;;;4.77;100.00
36378;BME280;22402;42.746;23.606;2024-01-27T11:45:24;93941.66;;;4.90;100.00
36378;BME280;22402;42.746;23.606;2024-01-27T11:47:50;93948.91;;;4.97;100.00
36378;BME280;22402;42.746;23.606;2024-01-27T11:50:19;93952.22;;;4.99;99.69
36378;BME280;22402;42.746;23.606;2024-01-27T11:52:46;93955.09;;;4.95;99.82
36378;BME280;22402;42.746;23.606;2024-01-27T11:55:12;93964.00;;;4.91;100.00
36378;BME280;22402;42.746;23.606;2024-01-27T11:57:43;93970.81;;;4.92;99.84
36378;BME280;22402;42.746;23.606;2024-01-27T12:00:11;93980.44;;;4.75;99.18
36378;BME280;22402;42.746;23.606;2024-01-27T12:02:38;93981.22;;;4.63;100.00
36378;BME280;22402;42.746;23.606;2024-01-27T12:05:08;93993.13;;;4.51;100.00
36378;BME280;22402;42.746;23.606;2024-01-27T12:07:34;93994.00;;;4.38;100.00
36378;BME280;22402;42.746;23.606;2024-01-27T12:10:00;93986.63;;;4.31;100.00
36378;BME280;22402;42.746;23.606;2024-01-27T12:12:25;93997.78;;;4.18;100.00
36378;BME280;22402;42.746;23.606;2024-01-27T12:14:52;94000.91;;;4.08;100.00
36378;BME280;22402;42.746;23.606;2024-01-27T12:17:18;94002.28;;;4.00;100.00
36378;BME280;22402;42.746;23.606;2024-01-27T12:19:49;93990.69;;;3.93;100.00
36378;BME280;22402;42.746;23.606;2024-01-27T12:22:26;94000.44;;;3.87;100.00
36378;BME280;22402;42.746;23.606;2024-01-27T12:24:53;93989.56;;;3.82;100.00
36378;BME280;22402;42.746;23.606;2024-01-27T12:27:19;93981.75;;;3.84;100.00
36378;BME280;22402;42.746;23.606;2024-01-27T12:29:47;93994.66;;;3.84;100.00
36378;BME280;22402;42.746;23.606;2024-01-27T12:32:15;94003.84;;;3.88;100.00
36378;BME280;22402;42.746;23.606;2024-01-27T12:34:41;94011.84;;;3.83;100.00
36378;BME280;22402;42.746;23.606;2024-01-27T12:37:16;94010.00;;;3.71;100.00
36378;BME280;22402;42.746;23.606;2024-01-27T12:39:44;94006.94;;;3.64;100.00
36378;BME280;22402;42.746;23.606;2024-01-27T12:42:17;94002.97;;;3.59;100.00
36378;BME280;22402;42.746;23.606;2024-01-27T12:44:43;94009.13;;;3.56;100.00
36378;BME280;22402;42.746;23.606;2024-01-27T12:47:09;93999.28;;;3.49;100.00